LGTS/SKG METAR and TAF weather

Enter ICAO airport designator
Station Type Date Time Source
LGTS METAR 2019/08/18 08:50 UTC NOAA

LGTS 180850Z 28007KT 9999 FEW025 26/19 Q1017 NOSIG


Station Type Date Time Source
LGTS Decoded METAR 2019/08/18 08:50 UTC NOAA

Station name not available
Aug 18, 2019 - 04:50 AM EDT / 2019.08.18 0850 UTC
Wind: from the W (280 degrees) at 8 MPH (7 KT):0
Visibility: greater than 7 mile(s):0
Sky conditions: mostly clear
Temperature: 78 F (26 C)
Dew Point: 66 F (19 C)
Relative Humidity: 65%
Pressure (altimeter): 30.03 in. Hg (1017 hPa)
ob: LGTS 180850Z 28007KT 9999 FEW025 26/19 Q1017 NOSIG
cycle: 9

Station Type Date Time Source
LGTS TAF 2019/08/18 06:15 UTC NOAA

TAF LGTS 180500Z 1806/1906 VRB03KT 9999 FEW025
BECMG 1812/1814 17012KT
BECMG 1817/1819 VRB03KT

Example: see airport list